createdAt,value
2022-08-29T00:02:11.743Z,100489.20
2022-08-29T00:04:44.029Z,100490.15
2022-08-29T00:07:16.857Z,100483.77
2022-08-29T00:09:49.052Z,100481.18
2022-08-29T00:12:21.292Z,100487.57
2022-08-29T00:14:53.623Z,100487.28
2022-08-29T00:17:25.944Z,100486.87
2022-08-29T00:19:58.387Z,100485.02
2022-08-29T00:22:31.338Z,100481.02
2022-08-29T00:25:05.049Z,100479.79
2022-08-29T00:27:37.576Z,100472.80
2022-08-29T00:30:12.339Z,100473.52
2022-08-29T00:32:44.687Z,100470.01
2022-08-29T00:35:19.737Z,100469.66
2022-08-29T00:37:52.324Z,100471.56
2022-08-29T00:40:28.236Z,100470.86
2022-08-29T00:43:00.524Z,100473.58
2022-08-29T00:45:33.674Z,100471.38
2022-08-29T00:48:11.439Z,100469.06
2022-08-29T00:50:49.251Z,100471.29
2022-08-29T00:53:31.511Z,100467.24
2022-08-29T00:56:04.733Z,100463.80
2022-08-29T00:58:42.239Z,100463.01
2022-08-29T01:01:14.531Z,100464.70
2022-08-29T01:03:47.542Z,100467.17
2022-08-29T01:06:20.904Z,100467.14
2022-08-29T01:08:57.280Z,100470.38
2022-08-29T01:11:49.412Z,100470.06
2022-08-29T01:14:23.568Z,100473.86
2022-08-29T01:16:59.066Z,100469.12
2022-08-29T01:19:54.353Z,100471.56
2022-08-29T01:22:42.186Z,100474.35
2022-08-29T01:25:19.626Z,100471.19
2022-08-29T01:27:58.093Z,100471.05
2022-08-29T01:30:30.490Z,100478.16
2022-08-29T01:33:03.178Z,100474.27
2022-08-29T01:35:36.711Z,100470.55
2022-08-29T01:38:08.853Z,100471.18
2022-08-29T01:40:41.094Z,100467.12
2022-08-29T01:43:13.303Z,100467.91
2022-08-29T01:45:45.843Z,100466.23
2022-08-29T01:48:18.149Z,100468.70
2022-08-29T01:50:50.375Z,100473.46
2022-08-29T01:53:24.979Z,100475.02
2022-08-29T01:55:57.122Z,100473.73
2022-08-29T01:58:30.024Z,100477.79
2022-08-29T02:01:02.220Z,100477.50
2022-08-29T02:03:34.478Z,100481.80
2022-08-29T02:06:09.736Z,100481.59
2022-08-29T02:08:45.090Z,100483.59
2022-08-29T02:11:18.064Z,100482.71
2022-08-29T02:13:53.508Z,100481.69
2022-08-29T02:16:24.091Z,100482.16
2022-08-29T02:18:56.366Z,100483.33
2022-08-29T02:21:30.407Z,100483.09
2022-08-29T02:24:23.873Z,100485.11
2022-08-29T02:26:58.535Z,100487.08
2022-08-29T02:29:37.703Z,100491.88
2022-08-29T02:32:14.564Z,100492.14
2022-08-29T02:34:47.652Z,100488.73
2022-08-29T02:37:20.886Z,100493.02
2022-08-29T02:39:53.791Z,100492.24
2022-08-29T02:42:26.132Z,100494.42
2022-08-29T02:44:58.317Z,100491.70
2022-08-29T02:47:30.495Z,100489.80
2022-08-29T02:50:02.684Z,100491.05
2022-08-29T02:52:37.285Z,100496.23
2022-08-29T02:55:12.663Z,100497.36
2022-08-29T02:57:45.461Z,100499.44
2022-08-29T03:00:21.584Z,100499.39
2022-08-29T03:02:55.368Z,100497.59
2022-08-29T03:05:30.088Z,100501.66
2022-08-29T03:08:03.251Z,100501.72
2022-08-29T03:10:36.648Z,100500.94
2022-08-29T03:13:08.922Z,100501.31
2022-08-29T03:15:41.861Z,100504.67
2022-08-29T03:18:14.902Z,100509.06
2022-08-29T03:20:48.334Z,100507.89
2022-08-29T03:23:21.914Z,100516.31
2022-08-29T03:25:54.132Z,100519.40
2022-08-29T03:28:26.458Z,100517.57
2022-08-29T03:30:58.651Z,100521.10
2022-08-29T03:33:31.135Z,100524.95
2022-08-29T03:36:03.567Z,100524.01
2022-08-29T03:38:40.022Z,100527.92
2022-08-29T03:41:13.573Z,100527.48
2022-08-29T03:43:45.774Z,100533.38
2022-08-29T03:46:18.042Z,100536.30
2022-08-29T03:48:50.343Z,100539.02
2022-08-29T03:51:25.063Z,100540.05
2022-08-29T03:54:02.227Z,100544.72
2022-08-29T03:56:34.432Z,100546.67
2022-08-29T03:59:06.794Z,100552.27
2022-08-29T04:01:39.125Z,100555.73
2022-08-29T04:04:31.639Z,100560.64
2022-08-29T04:07:05.008Z,100559.02
2022-08-29T04:09:37.587Z,100561.95
2022-08-29T04:12:11.532Z,100562.45
2022-08-29T04:14:44.313Z,100565.11
2022-08-29T04:17:16.488Z,100566.89
2022-08-29T04:19:49.340Z,100570.53
2022-08-29T04:22:21.627Z,100570.06
2022-08-29T04:24:53.881Z,100571.38
2022-08-29T04:27:26.072Z,100577.79
2022-08-29T04:29:58.242Z,100578.73
2022-08-29T04:32:30.470Z,100583.48
2022-08-29T04:35:02.703Z,100586.61
2022-08-29T04:37:35.207Z,100586.98
2022-08-29T04:40:09.172Z,100583.49
2022-08-29T04:42:41.583Z,100585.96
2022-08-29T04:45:18.009Z,100588.44
2022-08-29T04:47:50.195Z,100590.48
2022-08-29T04:50:24.939Z,100594.30
2022-08-29T04:52:58.015Z,100594.44
2022-08-29T04:55:31.394Z,100595.23
2022-08-29T04:58:04.081Z,100597.19
2022-08-29T05:00:36.476Z,100600.54
2022-08-29T05:03:08.717Z,100602.20
2022-08-29T05:05:41.190Z,100603.83
2022-08-29T05:08:13.533Z,100604.33
2022-08-29T05:10:49.159Z,100606.56
2022-08-29T05:13:22.297Z,100606.67
2022-08-29T05:15:54.618Z,100607.60
2022-08-29T05:18:26.863Z,100601.27
2022-08-29T05:20:59.117Z,100599.02
2022-08-29T05:23:31.701Z,100606.25
2022-08-29T05:26:05.548Z,100602.57
2022-08-29T05:28:38.732Z,100607.96
2022-08-29T05:31:13.815Z,100606.16
2022-08-29T05:33:46.221Z,100609.75
2022-08-29T05:36:18.957Z,100607.36
2022-08-29T05:38:51.388Z,100600.34
2022-08-29T05:41:23.572Z,100601.67
2022-08-29T05:43:55.925Z,100599.36
2022-08-29T05:46:28.166Z,100597.13
2022-08-29T05:49:00.375Z,100597.01
2022-08-29T05:51:37.433Z,100599.06
2022-08-29T05:54:11.742Z,100600.59
2022-08-29T05:56:44.273Z,100602.66
2022-08-29T05:59:17.151Z,100600.20
2022-08-29T06:01:49.382Z,100602.63
2022-08-29T06:04:21.640Z,100600.56
2022-08-29T06:06:53.802Z,100601.81
2022-08-29T06:09:25.961Z,100599.23
2022-08-29T06:11:58.929Z,100600.86
2022-08-29T06:14:31.710Z,100601.95
2022-08-29T06:17:04.858Z,100600.41
2022-08-29T06:19:37.540Z,100603.98
2022-08-29T06:22:11.510Z,100601.77
2022-08-29T06:24:45.400Z,100604.27
2022-08-29T06:27:19.436Z,100606.92
2022-08-29T06:29:51.559Z,100605.86
2022-08-29T06:32:23.740Z,100607.04
2022-08-29T06:34:55.943Z,100611.42
2022-08-29T06:37:28.152Z,100613.61
2022-08-29T06:40:00.446Z,100612.02
2022-08-29T06:42:32.670Z,100615.08
2022-08-29T06:45:05.084Z,100619.13
2022-08-29T06:47:37.235Z,100615.14
2022-08-29T06:50:10.897Z,100612.17
2022-08-29T06:52:43.097Z,100610.38
2022-08-29T06:55:24.133Z,100613.21
2022-08-29T06:57:56.942Z,100615.58
2022-08-29T07:00:29.116Z,100617.98
2022-08-29T07:03:01.728Z,100619.90
2022-08-29T07:05:34.316Z,100621.90
2022-08-29T07:08:06.927Z,100623.92
2022-08-29T07:10:39.057Z,100623.54
2022-08-29T07:13:11.286Z,100622.63
2022-08-29T07:15:43.720Z,100625.46
2022-08-29T07:18:16.070Z,100626.05
2022-08-29T07:20:49.013Z,100627.16
2022-08-29T07:23:21.300Z,100625.70
2022-08-29T07:25:53.789Z,100627.36
2022-08-29T07:28:25.919Z,100628.62
2022-08-29T07:30:58.327Z,100627.35
2022-08-29T07:33:31.444Z,100634.58
2022-08-29T07:36:05.513Z,100632.55
2022-08-29T07:38:38.497Z,100630.48
2022-08-29T07:41:14.413Z,100631.09
2022-08-29T07:43:46.803Z,100627.65
2022-08-29T07:46:21.114Z,100629.30
2022-08-29T07:48:53.875Z,100626.39
2022-08-29T07:51:26.936Z,100623.85
2022-08-29T07:53:59.875Z,100627.45
2022-08-29T07:56:39.399Z,100628.80
2022-08-29T07:59:11.619Z,100621.93
2022-08-29T08:01:43.797Z,100625.36
2022-08-29T08:04:16.324Z,100622.25
2022-08-29T08:06:51.376Z,100625.19
2022-08-29T08:09:23.586Z,100627.66
2022-08-29T08:11:55.812Z,100620.80
2022-08-29T08:14:35.180Z,100618.24
2022-08-29T08:17:07.742Z,100613.31
2022-08-29T08:19:40.208Z,100611.74
2022-08-29T08:22:12.395Z,100614.74
2022-08-29T08:24:45.080Z,100619.98
2022-08-29T08:27:17.505Z,100618.25
2022-08-29T08:29:49.663Z,100622.16
2022-08-29T08:32:22.208Z,100623.25
2022-08-29T08:34:54.433Z,100623.83
2022-08-29T08:37:28.022Z,100627.57
2022-08-29T08:40:01.289Z,100624.33
2022-08-29T08:42:42.716Z,100623.14
2022-08-29T08:45:16.662Z,100622.79
2022-08-29T08:47:54.623Z,100620.91
2022-08-29T08:50:36.020Z,100618.27
2022-08-29T08:53:14.416Z,100616.58
2022-08-29T08:55:50.016Z,100619.05
2022-08-29T08:58:37.037Z,100618.12
2022-08-29T09:01:26.712Z,100618.39
2022-08-29T09:04:17.774Z,100613.07
2022-08-29T09:07:16.506Z,100612.77
2022-08-29T09:10:01.383Z,100614.63
2022-08-29T09:12:46.232Z,100617.05
2022-08-29T09:15:25.861Z,100611.19
2022-08-29T09:18:02.458Z,100610.14
2022-08-29T09:20:37.195Z,100607.50
2022-08-29T09:23:19.981Z,100606.52
2022-08-29T09:25:53.635Z,100609.30
2022-08-29T09:28:26.324Z,100608.89
2022-08-29T09:31:23.730Z,100609.49
2022-08-29T09:33:58.487Z,100609.77
2022-08-29T09:36:43.485Z,100610.42
2022-08-29T09:39:23.711Z,100612.30
2022-08-29T09:41:59.160Z,100610.05
2022-08-29T09:44:35.361Z,100607.08
2022-08-29T09:47:13.156Z,100609.37
2022-08-29T09:50:05.930Z,100606.79
2022-08-29T09:52:39.655Z,100605.91
2022-08-29T09:55:33.548Z,100601.98
2022-08-29T09:58:10.288Z,100604.64
2022-08-29T10:00:46.031Z,100603.27
2022-08-29T10:03:25.490Z,100599.84
2022-08-29T10:06:10.979Z,100597.64
2022-08-29T10:08:42.517Z,100598.54
2022-08-29T10:11:26.548Z,100596.46
2022-08-29T10:14:02.058Z,100594.45
2022-08-29T10:16:44.783Z,100596.27
2022-08-29T10:19:20.452Z,100599.14
2022-08-29T10:22:03.943Z,100596.10
2022-08-29T10:24:55.233Z,100597.00
2022-08-29T10:27:36.122Z,100597.85
2022-08-29T10:30:13.823Z,100593.98
2022-08-29T10:33:12.471Z,100593.86
2022-08-29T10:35:54.708Z,100591.20
2022-08-29T10:38:41.096Z,100594.60
2022-08-29T10:41:26.321Z,100591.23
2022-08-29T10:44:06.128Z,100587.59
2022-08-29T10:46:53.145Z,100588.67
2022-08-29T10:49:36.971Z,100583.05
2022-08-29T10:52:17.630Z,100581.07
2022-08-29T10:55:09.281Z,100577.61
2022-08-29T10:57:48.302Z,100567.40
2022-08-29T11:00:24.574Z,100568.94
2022-08-29T11:03:07.495Z,100563.77
2022-08-29T11:05:46.107Z,100559.01
2022-08-29T11:08:24.609Z,100560.62
2022-08-29T11:10:57.159Z,100555.98
2022-08-29T11:13:33.340Z,100558.16
2022-08-29T11:16:13.209Z,100555.00
2022-08-29T11:18:50.180Z,100555.29
2022-08-29T11:21:34.811Z,100552.39
2022-08-29T11:24:10.866Z,100549.97
2022-08-29T11:26:55.179Z,100543.44
2022-08-29T11:29:36.217Z,100541.53
2022-08-29T11:32:18.445Z,100537.23
2022-08-29T11:35:05.772Z,100531.09
2022-08-29T11:38:18.292Z,100526.77
2022-08-29T11:43:59.976Z,100529.01
2022-08-29T11:46:41.004Z,100532.05
2022-08-29T11:49:45.724Z,100528.56
2022-08-29T11:52:26.437Z,100530.16
2022-08-29T11:55:26.066Z,100520.31
2022-08-29T11:58:11.023Z,100524.50
2022-08-29T12:00:55.163Z,100526.41
2022-08-29T12:03:57.333Z,100520.89
2022-08-29T12:06:40.575Z,100516.80
2022-08-29T12:09:26.738Z,100511.35
2022-08-29T12:12:44.001Z,100510.37
2022-08-29T12:15:53.381Z,100504.79
2022-08-29T12:18:46.796Z,100503.58
2022-08-29T12:21:48.811Z,100498.85
2022-08-29T12:24:41.078Z,100497.31
2022-08-29T12:27:40.594Z,100493.13
2022-08-29T12:30:16.630Z,100491.35
2022-08-29T12:33:02.547Z,100488.02
2022-08-29T12:36:03.592Z,100484.38
2022-08-29T12:39:07.891Z,100485.54
2022-08-29T12:42:00.124Z,100480.22
2022-08-29T12:44:38.779Z,100480.79
2022-08-29T12:47:15.680Z,100475.98
2022-08-29T12:49:51.843Z,100471.83
2022-08-29T12:52:28.204Z,100471.98
2022-08-29T12:55:17.963Z,100468.71
2022-08-29T12:57:50.935Z,100468.92
2022-08-29T13:00:25.812Z,100468.80
2022-08-29T13:03:05.019Z,100466.56
2022-08-29T13:05:43.775Z,100462.54
2022-08-29T13:08:27.152Z,100460.10
2022-08-29T13:11:01.045Z,100458.29
2022-08-29T13:13:33.496Z,100459.42
2022-08-29T13:16:09.887Z,100455.84
2022-08-29T13:19:00.113Z,100457.83
2022-08-29T13:21:36.828Z,100454.52
2022-08-29T13:24:17.290Z,100446.69
2022-08-29T13:27:04.783Z,100444.06
2022-08-29T13:29:42.105Z,100440.60
2022-08-29T13:32:23.994Z,100441.98
2022-08-29T13:35:18.181Z,100443.30
2022-08-29T13:38:20.047Z,100439.95
2022-08-29T13:40:54.239Z,100437.95
2022-08-29T13:43:40.747Z,100437.30
2022-08-29T13:46:21.831Z,100432.80
2022-08-29T13:49:01.639Z,100432.11
2022-08-29T13:51:34.016Z,100426.06
2022-08-29T13:54:06.247Z,100427.67
2022-08-29T13:56:38.811Z,100427.20
2022-08-29T13:59:11.793Z,100426.20
2022-08-29T14:04:39.369Z,100421.73
2022-08-29T14:07:17.396Z,100420.59
2022-08-29T14:09:50.700Z,100420.58
2022-08-29T14:12:33.062Z,100415.15
2022-08-29T14:15:10.330Z,100410.88
2022-08-29T14:17:44.318Z,100409.59
2022-08-29T14:20:17.739Z,100411.00
2022-08-29T14:22:50.487Z,100405.73
2022-08-29T14:25:23.477Z,100399.69
2022-08-29T14:27:55.642Z,100399.30
2022-08-29T14:30:28.414Z,100398.28
2022-08-29T14:33:01.777Z,100400.63
2022-08-29T14:35:35.022Z,100397.47
2022-08-29T14:38:11.193Z,100400.09
2022-08-29T14:40:44.178Z,100403.34
2022-08-29T14:43:16.781Z,100401.36
2022-08-29T14:45:49.027Z,100399.24
2022-08-29T14:48:21.539Z,100396.34
2022-08-29T14:50:53.808Z,100391.96
2022-08-29T14:53:26.268Z,100389.23
2022-08-29T14:55:59.041Z,100387.09
2022-08-29T14:58:31.325Z,100386.95
2022-08-29T15:01:04.495Z,100385.64
2022-08-29T15:03:36.680Z,100381.29
2022-08-29T15:06:10.564Z,100380.17
2022-08-29T15:08:43.792Z,100374.69
2022-08-29T15:11:15.999Z,100373.27
2022-08-29T15:13:48.159Z,100372.79
2022-08-29T15:16:20.409Z,100369.58
2022-08-29T15:19:31.596Z,100371.82
2022-08-29T15:21:44.835Z,100367.20
2022-08-29T15:24:17.027Z,100363.30
2022-08-29T15:26:49.208Z,100361.61
2022-08-29T15:29:21.423Z,100358.49
2022-08-29T15:31:55.488Z,100356.94
2022-08-29T15:34:29.284Z,100360.61
2022-08-29T15:37:01.939Z,100362.81
2022-08-29T15:39:34.539Z,100360.87
2022-08-29T15:42:11.186Z,100359.90
2022-08-29T15:44:43.472Z,100363.13
2022-08-29T15:47:16.168Z,100364.13
2022-08-29T15:49:49.377Z,100368.30
2022-08-29T15:52:21.658Z,100369.06
2022-08-29T15:54:53.908Z,100373.69
2022-08-29T15:57:26.708Z,100374.40
2022-08-29T15:59:59.206Z,100372.58
2022-08-29T16:02:31.559Z,100374.35
2022-08-29T16:05:03.875Z,100376.48
2022-08-29T16:07:36.056Z,100376.14
2022-08-29T16:10:10.361Z,100375.48
2022-08-29T16:12:43.326Z,100377.71
2022-08-29T16:15:15.644Z,100380.60
2022-08-29T16:17:47.824Z,100379.94
2022-08-29T16:20:19.979Z,100381.25
2022-08-29T16:22:52.581Z,100379.73
2022-08-29T16:25:26.407Z,100387.73
2022-08-29T16:27:59.191Z,100386.72
2022-08-29T16:30:31.509Z,100389.16
2022-08-29T16:33:03.826Z,100392.23
2022-08-29T16:35:36.176Z,100387.08
2022-08-29T16:38:08.416Z,100388.27
2022-08-29T16:40:40.781Z,100391.59
2022-08-29T16:43:13.345Z,100394.30
2022-08-29T16:45:45.734Z,100401.27
2022-08-29T16:48:18.197Z,100402.74
2022-08-29T16:50:50.784Z,100404.13
2022-08-29T16:53:22.973Z,100405.88
2022-08-29T16:55:56.130Z,100405.49
2022-08-29T16:58:45.827Z,100410.05
2022-08-29T17:01:18.153Z,100411.48
2022-08-29T17:03:50.383Z,100410.17
2022-08-29T17:06:22.656Z,100414.27
2022-08-29T17:08:53.590Z,100415.20
2022-08-29T17:11:25.039Z,100415.38
2022-08-29T17:13:56.780Z,100414.84
2022-08-29T17:16:29.114Z,100420.25
2022-08-29T17:19:01.772Z,100422.45
2022-08-29T17:21:34.680Z,100424.70
2022-08-29T17:24:08.132Z,100423.83
2022-08-29T17:26:42.671Z,100427.14
2022-08-29T17:29:15.476Z,100433.60
2022-08-29T17:31:48.065Z,100434.02
2022-08-29T17:34:20.504Z,100435.36
2022-08-29T17:36:52.703Z,100444.54
2022-08-29T17:39:25.066Z,100444.18
2022-08-29T17:41:59.427Z,100446.08
2022-08-29T17:44:32.031Z,100452.02
2022-08-29T17:47:04.249Z,100451.43
2022-08-29T17:49:36.603Z,100452.54
2022-08-29T17:52:08.836Z,100458.58
2022-08-29T17:54:41.031Z,100460.70
2022-08-29T17:57:13.285Z,100460.98
2022-08-29T17:59:45.626Z,100463.30
2022-08-29T18:02:17.835Z,100468.45
2022-08-29T18:04:50.091Z,100466.70
2022-08-29T18:07:22.443Z,100469.16
2022-08-29T18:09:54.720Z,100469.05
2022-08-29T18:12:27.200Z,100471.45
2022-08-29T18:14:59.397Z,100471.23
2022-08-29T18:17:32.306Z,100473.11
2022-08-29T18:20:05.047Z,100473.38
2022-08-29T18:22:37.742Z,100476.39
2022-08-29T18:25:11.723Z,100477.96
2022-08-29T18:27:44.056Z,100478.41
2022-08-29T18:30:16.804Z,100482.44
2022-08-29T18:32:49.174Z,100477.73
2022-08-29T18:35:21.736Z,100478.75
2022-08-29T18:37:53.995Z,100483.45
2022-08-29T18:40:26.672Z,100484.59
2022-08-29T18:43:01.227Z,100484.97
2022-08-29T18:45:33.666Z,100485.35
2022-08-29T18:48:07.349Z,100485.06
2022-08-29T18:50:39.663Z,100485.61
2022-08-29T18:53:14.267Z,100487.46
2022-08-29T18:55:50.367Z,100489.37
2022-08-29T18:58:25.122Z,100496.26
2022-08-29T19:01:00.385Z,100498.95
2022-08-29T19:03:32.706Z,100502.91
2022-08-29T19:06:05.065Z,100495.15
2022-08-29T19:08:37.323Z,100499.23
2022-08-29T19:11:11.451Z,100496.05
2022-08-29T19:13:44.130Z,100499.86
2022-08-29T19:16:16.582Z,100496.85
2022-08-29T19:18:48.939Z,100498.54
2022-08-29T19:21:21.113Z,100494.92
2022-08-29T19:23:54.729Z,100493.83
2022-08-29T19:26:29.640Z,100493.64
2022-08-29T19:29:12.614Z,100492.25
2022-08-29T19:31:46.417Z,100496.61
2022-08-29T19:34:18.587Z,100496.21
2022-08-29T19:36:50.764Z,100495.81
2022-08-29T19:39:23.888Z,100497.00
2022-08-29T19:41:56.074Z,100497.75
2022-08-29T19:44:28.775Z,100501.92
2022-08-29T19:47:00.980Z,100501.52
2022-08-29T19:49:33.151Z,100500.89
2022-08-29T19:52:05.693Z,100507.61
2022-08-29T19:54:37.957Z,100505.71
2022-08-29T19:57:10.179Z,100509.33
2022-08-29T19:59:49.028Z,100507.85
2022-08-29T20:02:21.326Z,100506.27
2022-08-29T20:04:53.693Z,100501.05
2022-08-29T20:07:26.177Z,100506.59
2022-08-29T20:09:58.320Z,100507.09
2022-08-29T20:12:34.335Z,100510.17
2022-08-29T20:15:07.448Z,100516.16
2022-08-29T20:17:40.222Z,100517.52
2022-08-29T20:20:16.076Z,100518.09
2022-08-29T20:22:49.388Z,100516.48
2022-08-29T20:25:23.017Z,100514.73
2022-08-29T20:27:55.509Z,100513.53
2022-08-29T20:30:31.394Z,100517.02
2022-08-29T20:33:04.745Z,100518.33
2022-08-29T20:35:55.338Z,100511.64
2022-08-29T20:38:27.824Z,100512.46
2022-08-29T20:41:00.704Z,100509.55
2022-08-29T20:43:32.953Z,100505.66
2022-08-29T20:46:09.201Z,100501.27
2022-08-29T20:48:41.445Z,100502.33
2022-08-29T20:51:14.543Z,100502.54
2022-08-29T20:53:46.782Z,100501.11
2022-08-29T20:56:19.035Z,100508.30
2022-08-29T20:58:51.235Z,100506.64
2022-08-29T21:01:23.526Z,100509.23
2022-08-29T21:04:13.397Z,100503.64
2022-08-29T21:06:46.335Z,100508.53
2022-08-29T21:09:18.930Z,100507.16
2022-08-29T21:11:51.103Z,100509.92
2022-08-29T21:14:24.276Z,100512.41
2022-08-29T21:16:58.046Z,100513.31
2022-08-29T21:19:31.108Z,100514.15
2022-08-29T21:22:05.118Z,100514.17
2022-08-29T21:24:37.720Z,100514.75
2022-08-29T21:27:10.666Z,100513.20
2022-08-29T21:29:43.741Z,100511.65
2022-08-29T21:32:15.914Z,100513.43
2022-08-29T21:34:48.083Z,100513.54
2022-08-29T21:37:20.284Z,100514.19
2022-08-29T21:39:52.788Z,100521.77
2022-08-29T21:42:25.474Z,100528.03
2022-08-29T21:44:59.079Z,100528.23
2022-08-29T21:47:32.059Z,100531.73
2022-08-29T21:50:05.184Z,100529.36
2022-08-29T21:52:38.220Z,100529.56
2022-08-29T21:55:12.108Z,100532.05
2022-08-29T21:57:51.851Z,100532.73
2022-08-29T22:00:26.188Z,100531.86
2022-08-29T22:02:58.703Z,100532.77
2022-08-29T22:05:31.768Z,100538.20
2022-08-29T22:08:04.541Z,100529.60
2022-08-29T22:10:38.887Z,100533.05
2022-08-29T22:13:11.223Z,100531.23
2022-08-29T22:16:00.878Z,100533.85
2022-08-29T22:18:33.112Z,100529.09
2022-08-29T22:21:05.979Z,100533.61
2022-08-29T22:23:38.157Z,100529.27
2022-08-29T22:26:10.471Z,100530.52
2022-08-29T22:28:45.268Z,100531.39
2022-08-29T22:31:17.971Z,100534.04
2022-08-29T22:33:50.381Z,100533.13
2022-08-29T22:36:23.325Z,100534.48
2022-08-29T22:38:57.777Z,100532.73
2022-08-29T22:41:30.049Z,100534.91
2022-08-29T22:44:42.346Z,100534.52
2022-08-29T22:46:55.949Z,100534.10
2022-08-29T22:49:33.078Z,100529.77
2022-08-29T22:52:06.367Z,100528.98
2022-08-29T22:54:44.076Z,100538.70
2022-08-29T22:57:18.304Z,100543.29
2022-08-29T22:59:51.535Z,100541.55
2022-08-29T23:02:24.434Z,100541.95
2022-08-29T23:04:56.673Z,100541.40
2022-08-29T23:07:29.232Z,100540.52
2022-08-29T23:10:01.846Z,100532.70
2022-08-29T23:12:36.254Z,100533.29
2022-08-29T23:15:11.800Z,100531.84
2022-08-29T23:17:44.943Z,100532.89
2022-08-29T23:20:19.094Z,100533.84
2022-08-29T23:22:51.645Z,100531.42
2022-08-29T23:25:24.081Z,100536.80
2022-08-29T23:27:56.263Z,100531.55
2022-08-29T23:30:28.874Z,100532.48
2022-08-29T23:33:01.647Z,100533.14
2022-08-29T23:35:33.845Z,100530.02
2022-08-29T23:38:07.643Z,100527.02
2022-08-29T23:40:40.339Z,100523.61
2022-08-29T23:43:13.075Z,100526.80
2022-08-29T23:45:45.754Z,100525.33
2022-08-29T23:48:17.924Z,100525.52
2022-08-29T23:50:55.190Z,100526.02
2022-08-29T23:53:28.195Z,100526.92
2022-08-29T23:56:00.513Z,100526.70
2022-08-29T23:58:32.703Z,100526.63
